Langruth, Canada
Current Conditions -  °F | °C
As of 10:00 AM on Thursday 27 Nov 2014 (Local Time) from CYBR Reporting Station
Overcast Overcast  
Wind Chill: -6°   Ceiling: 21000
Heat Index: -6°   Visibility: 15mi
Dew Point: -11°   Wind: 0mph
Humidity: 77%   Direction: NA
Pressure: 30.29"   Gusts: NA
Location:  50.38°N, 98.67°W
Report Text: CYBR 271600Z 00000KT 15SM FEW170 OVC210 M21/M24 A3029 RMK AC2CI6 SLP310
Loading
Personal Weather Stations






























Interactive Weather Map New forecast layout! Learn more

10-Day Weather Forecast

Advertisements
Track Severe Weather on mobile